Dades meteomassalio
Diari Summary for Gener 31, 2018 Units:  English    Metric   Both
« Previous Day
Next Day »
Diari Semanal Mensual Anual Personalitzat
  Maxima: Minima: Mijana:
Temperatura: TemperatureC °F -2.8 °F 2.8 °F
Rosada: DewpointC °F -3.9 °F 0.6 °F
Humitat: Humidity % 72 % 86 %
Velocitat del vent: WindSpeedKMH mph 0.0 mph 1.2 mph
Racha vent: WindSpeedGustKMH mph - -
Vent:- - ESE
Pressio: PressurehPa in 1020.9 in -
Pluja: 0.3 in    
Historical Graphs
 
 
Tabular Data for Gener 31, 2018
Time Temperature Dew Point Pressure Wind Wind Speed Wind Gust Humidity Rainfall Rate (Hourly) solar Conditions
TemperatureC °F DewpointC °F PressurehPa in Calm     Humidity % HourlyPrecipMM in SolarRadiationWatts/m^2 W/m2 Conditions
00:00 0.0 °F -1.3 °F 1031.4 in Calm     91 % 0.0 in 0.0 W/m2 CLR
00:05 0.0 °F -1.3 °F 1031.4 in Calm     91 % 0.0 in 0.0 W/m2 CLR
00:10 0.0 °F -1.3 °F 1031.4 in Calm     91 % 0.0 in 0.0 W/m2 CLR
00:15 0.6 °F -0.7 °F 1031.4 in Calm     91 % 0.0 in 0.0 W/m2 CLR
00:20 0.0 °F -1.3 °F 1031.4 in Calm     91 % 0.0 in 0.0 W/m2 CLR
00:25 0.0 °F -1.3 °F 1031.4 in Calm     91 % 0.0 in 0.0 W/m2 CLR
00:30 0.0 °F -1.3 °F 1031.4 in Calm     91 % 0.0 in 0.0 W/m2 CLR
00:35 0.0 °F -1.3 °F 1031.4 in Calm     91 % 0.0 in 0.0 W/m2 CLR
00:40 0.0 °F -1.2 °F 1031.0 in Calm     92 % 0.0 in 0.0 W/m2 CLR
00:45 0.0 °F -1.3 °F 1031.0 in Calm     91 % 0.0 in 0.0 W/m2 CLR
00:50 -0.6 °F -1.8 °F 1031.0 in Calm     91 % 0.0 in 0.0 W/m2 CLR
00:55 -0.6 °F -1.8 °F 1031.0 in Calm     91 % 0.0 in 0.0 W/m2 CLR
01:00 -0.6 °F -1.8 °F 1031.0 in Calm     91 % 0.0 in 0.0 W/m2 CLR
01:05 -0.6 °F -1.7 °F 1031.0 in Calm     92 % 0.0 in 0.0 W/m2 CLR
01:10 0.0 °F -1.3 °F 1031.0 in Calm     91 % 0.0 in 0.0 W/m2 CLR
01:15 0.0 °F -1.2 °F 1031.0 in Calm     92 % 0.0 in 0.0 W/m2 CLR
01:20 0.0 °F -1.2 °F 1031.0 in Calm     92 % 0.0 in 0.0 W/m2 CLR
01:25 0.0 °F -1.2 °F 1031.0 in Calm     92 % 0.0 in 0.0 W/m2 CLR
01:30 -0.6 °F -1.7 °F 1031.0 in Calm     92 % 0.0 in 0.0 W/m2 CLR
01:35 -0.6 °F -1.7 °F 1030.7 in Calm     92 % 0.0 in 0.0 W/m2 CLR
01:40 0.0 °F -1.2 °F 1030.7 in Calm     92 % 0.0 in 0.0 W/m2 CLR
01:45 -0.6 °F -1.7 °F 1030.7 in Calm     92 % 0.0 in 0.0 W/m2 CLR
01:50 -0.6 °F -1.7 °F 1030.7 in Calm     92 % 0.0 in 0.0 W/m2 CLR
01:55 -0.6 °F -1.7 °F 1030.7 in Calm     92 % 0.0 in 0.0 W/m2 CLR
02:00 -1.1 °F -2.2 °F 1030.7 in Calm     92 % 0.0 in 0.0 W/m2 CLR
02:05 -1.1 °F -2.2 °F 1030.4 in Calm     92 % 0.0 in 0.0 W/m2 CLR
02:10 -0.6 °F -1.7 °F 1030.4 in Calm     92 % 0.0 in 0.0 W/m2 CLR
02:15 -0.6 °F -1.7 °F 1030.4 in Calm     92 % 0.0 in 0.0 W/m2 CLR
02:20 -0.6 °F -1.7 °F 1030.4 in Calm     92 % 0.0 in 0.0 W/m2 CLR
02:25 -1.1 °F -2.2 °F 1030.4 in Calm     92 % 0.0 in 0.0 W/m2 CLR
02:30 -1.1 °F -2.2 °F 1030.4 in Calm     92 % 0.0 in 0.0 W/m2 CLR
02:35 -1.1 °F -2.2 °F 1030.4 in Calm     92 % 0.0 in 0.0 W/m2 CLR
02:40 -1.1 °F -2.2 °F 1030.4 in Calm     92 % 0.0 in 0.0 W/m2 CLR
02:45 -1.7 °F -2.8 °F 1030.4 in Calm     92 % 0.0 in 0.0 W/m2 CLR
02:50 -1.7 °F -2.8 °F 1030.4 in Calm     92 % 0.0 in 0.0 W/m2 CLR
02:55 -1.7 °F -2.8 °F 1030.4 in Calm     92 % 0.0 in 0.0 W/m2 CLR
03:00 -1.7 °F -2.8 °F 1030.4 in Calm     92 % 0.0 in 0.0 W/m2 CLR
03:05 -1.7 °F -2.8 °F 1030.0 in Calm     92 % 0.0 in 0.0 W/m2 CLR
03:10 -1.7 °F -2.8 °F 1030.0 in Calm     92 % 0.0 in 0.0 W/m2 CLR
03:15 -1.7 °F -2.8 °F 1030.0 in Calm     92 % 0.0 in 0.0 W/m2 CLR
03:20 -1.7 °F -2.8 °F 1030.0 in Calm     92 % 0.0 in 0.0 W/m2 CLR
03:25 -1.7 °F -2.8 °F 1030.0 in Calm     92 % 0.0 in 0.0 W/m2 CLR
03:30 -1.7 °F -2.8 °F 1030.0 in Calm     92 % 0.0 in 0.0 W/m2 CLR
03:35 -1.7 °F -2.8 °F 1030.0 in Calm     92 % 0.0 in 0.0 W/m2 CLR
03:40 -1.7 °F -2.8 °F 1030.0 in Calm     92 % 0.0 in 0.0 W/m2 CLR
03:45 -2.2 °F -3.3 °F 1030.0 in Calm     92 % 0.0 in 0.0 W/m2 CLR
03:50 -2.2 °F -3.3 °F 1030.0 in Calm     92 % 0.0 in 0.0 W/m2 CLR
03:55 -1.7 °F -2.8 °F 1030.0 in Calm     92 % 0.0 in 0.0 W/m2 CLR
04:00 -1.7 °F -2.8 °F 1029.7 in Calm     92 % 0.0 in 0.0 W/m2 CLR
04:05 -2.2 °F -3.3 °F 1029.7 in Calm     92 % 0.0 in 0.0 W/m2 CLR
04:10 -1.7 °F -2.7 °F 1029.7 in Calm     93 % 0.0 in 0.0 W/m2 CLR
04:15 -1.7 °F -2.7 °F 1029.7 in Calm     93 % 0.0 in 0.0 W/m2 CLR
04:20 -1.7 °F -2.8 °F 1029.7 in Calm     92 % 0.0 in 0.0 W/m2 CLR
04:25 -1.7 °F -2.8 °F 1029.7 in Calm     92 % 0.0 in 0.0 W/m2 CLR
04:30 -1.7 °F -2.8 °F 1029.7 in Calm     92 % 0.0 in 0.0 W/m2 CLR
04:35 -1.7 °F -2.8 °F 1029.7 in Calm     92 % 0.0 in 0.0 W/m2 CLR
04:40 -1.7 °F -2.7 °F 1029.7 in Calm     93 % 0.0 in 0.0 W/m2 CLR
04:45 -1.7 °F -2.7 °F 1029.3 in Calm     93 % 0.0 in 0.0 W/m2 CLR
04:50 -1.7 °F -2.8 °F 1029.3 in Calm     92 % 0.0 in 0.0 W/m2 CLR
04:55 -2.2 °F -3.3 °F 1029.3 in Calm     92 % 0.0 in 0.0 W/m2 CLR
05:00 -2.2 °F -3.3 °F 1029.3 in Calm     92 % 0.0 in 0.0 W/m2 CLR
05:05 -1.7 °F -2.8 °F 1029.3 in Calm     92 % 0.0 in 0.0 W/m2 CLR
05:10 -1.7 °F -2.8 °F 1029.3 in Calm     92 % 0.0 in 0.0 W/m2 CLR
05:15 -1.1 °F -2.2 °F 1029.3 in Calm     92 % 0.0 in 0.0 W/m2 CLR
05:20 -1.7 °F -2.8 °F 1029.3 in Calm     92 % 0.0 in 0.0 W/m2 CLR
05:25 -1.7 °F -2.8 °F 1029.3 in Calm     92 % 0.0 in 0.0 W/m2 CLR
05:30 -1.7 °F -2.8 °F 1029.3 in Calm     92 % 0.0 in 0.0 W/m2 CLR
05:35 -1.7 °F -2.8 °F 1029.3 in Calm     92 % 0.0 in 0.0 W/m2 CLR
05:41 -1.7 °F -2.8 °F 1029.3 in Calm     92 % 0.0 in 0.0 W/m2 CLR
05:46 -1.7 °F -2.7 °F 1029.3 in Calm     93 % 0.0 in 0.0 W/m2 CLR
05:51 -2.2 °F -3.3 °F 1029.3 in Calm     92 % 0.0 in 0.0 W/m2 CLR
05:56 -1.7 °F -2.8 °F 1029.3 in Calm     92 % 0.0 in 0.0 W/m2 CLR
06:01 -1.7 °F -2.7 °F 1029.3 in Calm     93 % 0.0 in 0.0 W/m2 CLR
06:06 -1.7 °F -2.7 °F 1029.3 in Calm     93 % 0.0 in 0.0 W/m2 CLR
06:11 -2.2 °F -3.3 °F 1029.3 in Calm     92 % 0.0 in 0.0 W/m2 CLR
06:16 -2.2 °F -3.2 °F 1029.3 in Calm     93 % 0.0 in 0.0 W/m2 CLR
06:21 -2.2 °F -3.2 °F 1029.3 in Calm     93 % 0.0 in 0.0 W/m2 CLR
06:26 -2.2 °F -3.2 °F 1029.0 in Calm     93 % 0.0 in 0.0 W/m2 CLR
06:31 -2.2 °F -3.2 °F 1029.0 in Calm     93 % 0.0 in 0.0 W/m2 CLR
06:36 -2.2 °F -3.2 °F 1029.0 in Calm     93 % 0.0 in 0.0 W/m2 CLR
06:41 -2.8 °F -3.8 °F 1029.0 in Calm     93 % 0.0 in 0.0 W/m2 CLR
06:46 -2.8 °F -3.8 °F 1029.0 in Calm     93 % 0.0 in 0.0 W/m2 CLR
06:51 -2.8 °F -3.8 °F 1029.0 in Calm     93 % 0.0 in 0.0 W/m2 CLR
06:56 -2.8 °F -3.9 °F 1029.0 in Calm     92 % 0.0 in 0.0 W/m2 CLR
07:01 -2.8 °F -3.8 °F 1029.0 in Calm     93 % 0.0 in 0.0 W/m2 CLR
07:06 -2.8 °F -3.8 °F 1029.3 in Calm     93 % 0.0 in 0.0 W/m2 CLR
07:11 -2.8 °F -3.8 °F 1029.3 in Calm     93 % 0.0 in 0.0 W/m2 CLR
07:16 -2.8 °F -3.8 °F 1029.3 in Calm     93 % 0.0 in 0.0 W/m2 CLR
07:21 -2.8 °F -3.8 °F 1029.3 in Calm     93 % 0.0 in 0.0 W/m2 CLR
07:26 -2.8 °F -3.8 °F 1029.3 in Calm     93 % 0.0 in 0.0 W/m2 CLR
07:31 -2.8 °F -3.8 °F 1029.7 in Calm     93 % 0.0 in 0.0 W/m2 CLR
07:36 -2.8 °F -3.8 °F 1029.7 in Calm     93 % 0.0 in 0.0 W/m2 CLR
07:41 -2.8 °F -3.8 °F 1029.7 in Calm     93 % 0.0 in 0.0 W/m2 CLR
07:46 -2.8 °F -3.8 °F 1029.7 in Calm     93 % 0.0 in 0.0 W/m2 CLR
07:51 -2.8 °F -3.8 °F 1029.7 in Calm     93 % 0.0 in 0.0 W/m2 CLR
07:56 -2.8 °F -3.8 °F 1029.3 in Calm     93 % 0.0 in 0.0 W/m2 CLR
08:01 -2.8 °F -3.8 °F 1029.3 in Calm     93 % 0.0 in 0.0 W/m2 OVC
08:06 -2.8 °F -3.8 °F 1029.3 in Calm     93 % 0.0 in 0.0 W/m2 OVC
08:11 -2.8 °F -3.8 °F 1029.3 in Calm     93 % 0.0 in 5.0 W/m2 OVC
08:16 -2.8 °F -3.8 °F 1029.3 in Calm     93 % 0.0 in 7.0 W/m2 BKN
08:21 -2.8 °F -3.8 °F 1029.3 in Calm     93 % 0.0 in 11.0 W/m2 BKN
08:26 -2.8 °F -3.8 °F 1029.3 in Calm     93 % 0.0 in 14.0 W/m2 BKN
08:31 -2.8 °F -3.8 °F 1029.3 in Calm     93 % 0.0 in 16.0 W/m2 BKN
08:36 -2.8 °F -3.8 °F 1029.3 in Calm     93 % 0.0 in 21.0 W/m2 BKN
08:41 -2.8 °F -3.8 °F 1029.3 in Calm     93 % 0.0 in 25.0 W/m2 BKN
08:46 -2.8 °F -3.8 °F 1029.7 in Calm     93 % 0.0 in 32.0 W/m2 BKN
08:51 -2.8 °F -3.8 °F 1029.7 in Calm     93 % 0.0 in 49.0 W/m2 BKN
08:56 -2.8 °F -3.8 °F 1029.7 in Calm     93 % 0.0 in 62.0 W/m2 SCT
09:01 -2.8 °F -3.8 °F 1029.7 in Calm     93 % 0.0 in 60.0 W/m2 SCT
09:06 -2.8 °F -3.8 °F 1029.7 in Calm     93 % 0.0 in 88.0 W/m2 CLR
09:11 -2.2 °F -3.2 °F 1029.7 in Calm     93 % 0.0 in 100.0 W/m2 CLR
09:16 -2.2 °F -3.2 °F 1029.7 in Calm     93 % 0.0 in 107.0 W/m2 CLR
09:21 -1.7 °F -2.7 °F 1029.7 in Calm     93 % 0.0 in 120.0 W/m2 CLR
09:26 -1.7 °F -2.7 °F 1029.7 in Calm     93 % 0.0 in 128.0 W/m2 CLR
09:31 -1.7 °F -2.7 °F 1029.7 in Calm     93 % 0.0 in 139.0 W/m2 CLR
09:36 -1.1 °F -2.1 °F 1029.7 in Calm     93 % 0.3 in 160.0 W/m2 RA
09:41 -1.1 °F -2.1 °F 1029.3 in Calm     93 % 0.3 in 171.0 W/m2 CLR
09:46 -1.1 °F -2.1 °F 1029.3 in Calm     93 % 0.3 in 146.0 W/m2 CLR
09:51 -0.6 °F -1.6 °F 1029.7 in Calm     93 % 0.3 in 193.0 W/m2 CLR
09:56 0.0 °F -1.0 °F 1029.7 in Calm     93 % 0.3 in 197.0 W/m2 CLR
10:01 0.0 °F -1.0 °F 1029.3 in Calm     93 % 0.3 in 232.0 W/m2 CLR
10:06 0.6 °F -0.6 °F 1029.7 in Calm     92 % 0.3 in 241.0 W/m2 CLR
10:11 0.6 °F -0.6 °F 1029.7 in Calm     92 % 0.3 in 257.0 W/m2 CLR
10:16 0.6 °F -0.6 °F 1029.3 in Calm     92 % 0.3 in 269.0 W/m2 CLR
10:21 1.1 °F -0.1 °F 1029.3 in Calm     92 % 0.3 in 283.0 W/m2 CLR
10:26 1.1 °F -0.1 °F 1029.7 in Calm     92 % 0.3 in 294.0 W/m2 CLR
10:31 1.7 °F 0.3 °F 1029.7 in Calm     91 % 0.3 in 306.0 W/m2 CLR
10:36 2.2 °F 0.9 °F 1029.3 in Calm     91 % 0.0 in 323.0 W/m2 CLR
10:41 2.8 °F 1.2 °F 1029.7 in Calm     89 % 0.0 in 338.0 W/m2 CLR
10:46 2.8 °F 1.0 °F 1029.7 in Calm     88 % 0.0 in 353.0 W/m2 CLR
10:51 3.3 °F 1.4 °F 1029.7 in Calm     87 % 0.0 in 367.0 W/m2 CLR
10:57 3.3 °F 1.2 °F 1029.3 in Calm     86 % 0.0 in 378.0 W/m2 CLR
11:02 3.9 °F 1.6 °F 1029.3 in Calm     85 % 0.0 in 390.0 W/m2 CLR
11:07 3.9 °F 1.3 °F 1029.7 in Calm     83 % 0.0 in 404.0 W/m2 CLR
11:12 4.4 °F 1.4 °F 1029.3 in Calm     81 % 0.0 in 413.0 W/m2 CLR
11:17 5.0 °F 1.8 °F 1029.3 in Calm     80 % 0.0 in 422.0 W/m2 CLR
11:22 5.0 °F 1.8 °F 1029.3 in Calm     80 % 0.0 in 429.0 W/m2 CLR
11:27 5.6 °F 2.2 °F 1029.3 in Calm     79 % 0.0 in 438.0 W/m2 CLR
11:32 6.1 °F 2.7 °F 1029.3 in Calm     79 % 0.0 in 448.0 W/m2 CLR
11:37 6.1 °F 2.6 °F 1029.3 in Calm     78 % 0.0 in 455.0 W/m2 CLR
11:42 6.7 °F 2.9 °F 1029.3 in Calm     77 % 0.0 in 462.0 W/m2 CLR
11:47 6.7 °F 2.9 °F 1029.3 in East 5.6 mph 5.6 mph 77 % 0.0 in 471.0 W/m2 CLR
11:52 7.2 °F 3.4 °F 1029.3 in East 5.6 mph 5.6 mph 77 % 0.0 in 478.0 W/m2 CLR
11:57 7.8 °F 3.8 °F 1029.3 in East 8.0 mph 8.0 mph 76 % 0.0 in 483.0 W/m2 CLR
12:02 7.8 °F 3.8 °F 1029.0 in East 5.6 mph 5.6 mph 76 % 0.0 in 489.0 W/m2 CLR
12:07 7.8 °F 4.2 °F 1029.0 in Calm     78 % 0.0 in 496.0 W/m2 CLR
12:12 7.8 °F 4.0 °F 1029.0 in ENE 6.4 mph 6.4 mph 77 % 0.0 in 499.0 W/m2 CLR
12:17 8.3 °F 4.6 °F 1029.0 in East 5.6 mph 5.6 mph 77 % 0.0 in 504.0 W/m2 CLR
12:22 8.3 °F 4.7 °F 1029.0 in East 7.4 mph 7.4 mph 78 % 0.0 in 508.0 W/m2 CLR
12:27 8.9 °F 5.1 °F 1028.7 in ENE 5.6 mph 5.6 mph 77 % 0.0 in 513.0 W/m2 CLR
12:32 8.9 °F 5.3 °F 1028.7 in ENE 5.6 mph 5.6 mph 78 % 0.0 in 517.0 W/m2 CLR
12:37 8.9 °F 5.1 °F 1028.7 in ENE 5.6 mph 5.6 mph 77 % 0.0 in 519.0 W/m2 CLR
12:42 8.9 °F 5.3 °F 1028.3 in ENE 7.4 mph 7.4 mph 78 % 0.0 in 520.0 W/m2 CLR
12:47 8.9 °F 5.3 °F 1028.3 in East 5.6 mph 5.6 mph 78 % 0.0 in 522.0 W/m2 CLR
12:52 8.9 °F 5.3 °F 1028.3 in East 5.6 mph 5.6 mph 78 % 0.0 in 526.0 W/m2 CLR
12:57 8.9 °F 5.3 °F 1028.3 in ENE 7.4 mph 7.4 mph 78 % 0.0 in 526.0 W/m2 CLR
13:02 8.9 °F 5.3 °F 1028.0 in ENE 7.4 mph 7.4 mph 78 % 0.0 in 526.0 W/m2 CLR
13:07 8.9 °F 5.3 °F 1028.0 in East 4.8 mph 4.8 mph 78 % 0.0 in 527.0 W/m2 CLR
13:12 8.9 °F 5.3 °F 1028.0 in ENE 5.6 mph 5.6 mph 78 % 0.0 in 527.0 W/m2 CLR
13:17 9.4 °F 5.6 °F 1027.7 in East 5.6 mph 5.6 mph 77 % 0.0 in 526.0 W/m2 CLR
13:22 10.0 °F 5.9 °F 1027.7 in Calm     76 % 0.0 in 526.0 W/m2 CLR
13:27 10.0 °F 6.3 °F 1027.7 in East 5.6 mph 5.6 mph 78 % 0.0 in 526.0 W/m2 CLR
13:32 9.4 °F 5.4 °F 1027.7 in East 5.6 mph 5.6 mph 76 % 0.0 in 524.0 W/m2 CLR
13:37 10.0 °F 5.9 °F 1027.3 in East 5.6 mph 5.6 mph 76 % 0.0 in 522.0 W/m2 CLR
13:42 10.0 °F 5.9 °F 1027.3 in ENE 3.7 mph 3.7 mph 76 % 0.0 in 522.0 W/m2 CLR
13:47 10.0 °F 5.8 °F 1027.3 in Calm     75 % 0.0 in 519.0 W/m2 CLR
13:52 10.6 °F 6.1 °F 1027.0 in East 3.7 mph 3.7 mph 74 % 0.0 in 517.0 W/m2 CLR
13:57 10.6 °F 6.1 °F 1027.0 in East 7.4 mph 7.4 mph 74 % 0.0 in 513.0 W/m2 CLR
14:02 11.1 °F 6.4 °F 1026.6 in ESE 5.6 mph 5.6 mph 73 % 0.0 in 510.0 W/m2 CLR
14:07 11.1 °F 6.7 °F 1026.6 in East 5.6 mph 5.6 mph 74 % 0.0 in 504.0 W/m2 CLR
14:12 11.1 °F 6.7 °F 1026.6 in East 5.6 mph 5.6 mph 74 % 0.0 in 497.0 W/m2 CLR
14:17 11.1 °F 6.7 °F 1026.6 in East 5.6 mph 5.6 mph 74 % 0.0 in 494.0 W/m2 CLR
14:22 10.6 °F 5.9 °F 1026.6 in ENE 5.6 mph 5.6 mph 73 % 0.0 in 489.0 W/m2 CLR
14:27 10.6 °F 5.9 °F 1026.3 in East 7.4 mph 7.4 mph 73 % 0.0 in 483.0 W/m2 CLR
14:32 11.1 °F 6.4 °F 1026.3 in ENE 3.7 mph 3.7 mph 73 % 0.0 in 478.0 W/m2 CLR
14:37 11.1 °F 6.7 °F 1026.3 in East 5.6 mph 5.6 mph 74 % 0.0 in 469.0 W/m2 CLR
14:42 11.1 °F 6.7 °F 1026.0 in ESE 6.4 mph 6.4 mph 74 % 0.0 in 462.0 W/m2 CLR
14:47 11.1 °F 6.4 °F 1026.0 in East 5.6 mph 5.6 mph 73 % 0.0 in 455.0 W/m2 CLR
14:52 11.1 °F 6.4 °F 1025.6 in Calm   0.3 mph 73 % 0.0 in 450.0 W/m2 CLR
14:57 11.7 °F 6.8 °F 1025.6 in ESE 8.0 mph 8.0 mph 72 % 0.0 in 443.0 W/m2 CLR
15:02 11.7 °F 6.8 °F 1025.6 in NE 7.4 mph 7.4 mph 72 % 0.0 in 434.0 W/m2 CLR
15:07 11.7 °F 6.8 °F 1025.3 in ESE 7.4 mph 7.4 mph 72 % 0.0 in 425.0 W/m2 CLR
15:12 11.7 °F 7.0 °F 1025.3 in East 9.3 mph 9.3 mph 73 % 0.0 in 417.0 W/m2 CLR
15:17 11.7 °F 7.0 °F 1025.3 in East 5.6 mph 5.6 mph 73 % 0.0 in 404.0 W/m2 CLR
15:22 11.7 °F 6.8 °F 1025.3 in East 5.6 mph 5.6 mph 72 % 0.0 in 396.0 W/m2 CLR
15:27 11.7 °F 6.8 °F 1024.9 in ENE 3.7 mph 3.7 mph 72 % 0.0 in 387.0 W/m2 CLR
15:32 11.7 °F 6.8 °F 1024.9 in ESE 3.7 mph 3.7 mph 72 % 0.0 in 376.0 W/m2 CLR
15:37 11.7 °F 6.8 °F 1024.9 in ENE 7.4 mph 7.4 mph 72 % 0.0 in 366.0 W/m2 CLR
15:42 11.7 °F 6.8 °F 1024.9 in ENE 7.4 mph 7.4 mph 72 % 0.0 in 353.0 W/m2 CLR
15:47 11.7 °F 6.8 °F 1024.9 in Calm     72 % 0.0 in 343.0 W/m2 CLR
15:52 11.7 °F 6.8 °F 1024.9 in East 5.6 mph 5.6 mph 72 % 0.0 in 329.0 W/m2 CLR
15:57 11.7 °F 7.0 °F 1024.9 in East 6.4 mph 6.4 mph 73 % 0.0 in 316.0 W/m2 CLR
16:02 11.7 °F 7.0 °F 1024.9 in ENE 5.6 mph 5.6 mph 73 % 0.0 in 304.0 W/m2 CLR
16:07 11.1 °F 6.7 °F 1024.6 in ENE 5.6 mph 5.6 mph 74 % 0.0 in 290.0 W/m2 CLR
16:12 11.1 °F 6.7 °F 1024.6 in ENE 5.6 mph 5.6 mph 74 % 0.0 in 278.0 W/m2 CLR
16:17 10.6 °F 6.1 °F 1024.6 in ENE 5.6 mph 5.6 mph 74 % 0.0 in 267.0 W/m2 CLR
16:22 10.6 °F 6.1 °F 1024.6 in East 6.4 mph 6.4 mph 74 % 0.0 in 251.0 W/m2 CLR
16:27 10.6 °F 6.1 °F 1024.3 in East 1.9 mph   74 % 0.0 in 236.0 W/m2 CLR
16:33 10.6 °F 6.1 °F 1024.3 in ENE 5.6 mph   74 % 0.0 in 225.0 W/m2 CLR
16:38 10.6 °F 6.1 °F 1024.3 in Calm     74 % 0.0 in 209.0 W/m2 CLR
16:43 10.6 °F 6.1 °F 1024.3 in East 3.2 mph 3.2 mph 74 % 0.0 in 192.0 W/m2 CLR
16:48 10.6 °F 6.3 °F 1024.3 in Calm     75 % 0.0 in 174.0 W/m2 CLR
16:53 10.6 °F 6.3 °F 1024.3 in Calm     75 % 0.0 in 158.0 W/m2 CLR
16:58 10.6 °F 6.3 °F 1023.9 in Calm     75 % 0.0 in 142.0 W/m2 CLR
17:03 10.6 °F 6.1 °F 1023.9 in Calm     74 % 0.0 in 130.0 W/m2 CLR
17:08 10.6 °F 6.1 °F 1023.9 in Calm     74 % 0.0 in 114.0 W/m2 CLR
17:13 10.0 °F 5.6 °F 1023.9 in Calm     74 % 0.0 in 102.0 W/m2 CLR
17:18 9.4 °F 5.1 °F 1023.9 in Calm     74 % 0.0 in 86.0 W/m2 CLR
17:23 9.4 °F 5.1 °F 1023.9 in Calm     74 % 0.0 in 74.0 W/m2 FEW
17:28 9.4 °F 5.1 °F 1023.9 in Calm     74 % 0.0 in 54.0 W/m2 SCT
17:33 8.9 °F 4.7 °F 1023.9 in Calm     75 % 0.0 in 49.0 W/m2 SCT
17:38 8.3 °F 4.2 °F 1023.9 in Calm     75 % 0.0 in 39.0 W/m2 BKN
17:43 8.3 °F 3.9 °F 1023.6 in Calm     74 % 0.0 in 32.0 W/m2 BKN
17:48 8.3 °F 3.9 °F 1023.6 in Calm     74 % 0.0 in 25.0 W/m2 BKN
17:53 7.8 °F 3.6 °F 1023.6 in Calm     75 % 0.0 in 19.0 W/m2 BKN
17:58 7.2 °F 3.1 °F 1023.2 in Calm     75 % 0.0 in 16.0 W/m2 BKN
18:03 6.7 °F 2.6 °F 1023.2 in Calm     75 % 0.0 in 12.0 W/m2 BKN
18:08 6.7 °F 2.7 °F 1023.2 in Calm     76 % 0.0 in 9.0 W/m2 BKN
18:13 6.1 °F 2.4 °F 1023.2 in Calm     77 % 0.0 in 5.0 W/m2 BKN
18:18 6.1 °F 2.4 °F 1023.2 in Calm     77 % 0.0 in 0.0 W/m2 OVC
18:23 5.6 °F 2.0 °F 1022.9 in Calm     78 % 0.0 in 0.0 W/m2 OVC
18:28 5.6 °F 2.2 °F 1022.9 in Calm     79 % 0.0 in 0.0 W/m2 CLR
18:33 5.6 °F 2.2 °F 1022.9 in Calm     79 % 0.0 in 0.0 W/m2 CLR
18:38 5.0 °F 1.8 °F 1022.9 in Calm     80 % 0.0 in 0.0 W/m2 CLR
18:43 5.0 °F 1.8 °F 1022.9 in Calm     80 % 0.0 in 0.0 W/m2 CLR
18:48 5.0 °F 2.0 °F 1022.9 in Calm     81 % 0.0 in 0.0 W/m2 CLR
18:53 5.0 °F 2.0 °F 1022.9 in Calm     81 % 0.0 in 0.0 W/m2 CLR
18:58 5.0 °F 2.3 °F 1022.9 in Calm     83 % 0.0 in 0.0 W/m2 CLR
19:03 5.0 °F 2.5 °F 1023.2 in Calm     84 % 0.0 in 0.0 W/m2 CLR
19:08 5.0 °F 2.7 °F 1022.9 in Calm     85 % 0.0 in 0.0 W/m2 CLR
19:13 5.0 °F 2.7 °F 1023.2 in Calm     85 % 0.0 in 0.0 W/m2 CLR
19:18 5.0 °F 2.8 °F 1023.2 in Calm     86 % 0.0 in 0.0 W/m2 CLR
19:23 5.0 °F 2.8 °F 1022.9 in Calm     86 % 0.0 in 0.0 W/m2 CLR
19:28 5.0 °F 2.8 °F 1022.9 in Calm     86 % 0.0 in 0.0 W/m2 CLR
19:33 4.4 °F 2.4 °F 1022.9 in Calm     87 % 0.0 in 0.0 W/m2 CLR
19:38 4.4 °F 2.4 °F 1022.9 in Calm     87 % 0.0 in 0.0 W/m2 CLR
19:43 3.9 °F 1.9 °F 1023.2 in Calm     87 % 0.0 in 0.0 W/m2 CLR
19:48 3.3 °F 1.6 °F 1023.2 in Calm     88 % 0.0 in 0.0 W/m2 CLR
19:53 3.3 °F 1.6 °F 1023.2 in Calm     88 % 0.0 in 0.0 W/m2 CLR
19:58 2.8 °F 1.0 °F 1023.2 in Calm     88 % 0.0 in 0.0 W/m2 CLR
20:03 2.8 °F 0.8 °F 1023.2 in Calm     87 % 0.0 in 0.0 W/m2 CLR
20:08 2.8 °F 1.0 °F 1023.6 in Calm     88 % 0.0 in 0.0 W/m2 CLR
20:13 2.2 °F 0.6 °F 1023.6 in Calm     89 % 0.0 in 0.0 W/m2 CLR
20:18 2.2 °F 0.6 °F 1023.2 in Calm     89 % 0.0 in 0.0 W/m2 CLR
20:23 2.2 °F 0.6 °F 1023.2 in Calm     89 % 0.0 in 0.0 W/m2 CLR
20:28 2.2 °F 0.6 °F 1023.2 in Calm     89 % 0.0 in 0.0 W/m2 CLR
20:33 2.2 °F 0.8 °F 1023.2 in Calm     90 % 0.0 in 0.0 W/m2 CLR
20:38 2.2 °F 0.8 °F 1023.6 in Calm     90 % 0.0 in 0.0 W/m2 CLR
20:43 2.2 °F 0.8 °F 1023.2 in Calm     90 % 0.0 in 0.0 W/m2 CLR
20:48 2.8 °F 1.3 °F 1023.2 in Calm     90 % 0.0 in 0.0 W/m2 CLR
20:53 2.8 °F 1.3 °F 1023.2 in Calm     90 % 0.0 in 0.0 W/m2 CLR
20:58 2.8 °F 1.3 °F 1023.2 in West 6.4 mph 6.4 mph 90 % 0.0 in 0.0 W/m2 CLR
21:03 2.8 °F 1.3 °F 1023.2 in WSW 5.6 mph 5.6 mph 90 % 0.0 in 0.0 W/m2 CLR
21:08 2.8 °F 1.4 °F 1022.9 in WSW 7.4 mph 7.4 mph 91 % 0.0 in 0.0 W/m2 CLR
21:13 2.8 °F 1.3 °F 1022.9 in Calm     90 % 0.0 in 0.0 W/m2 CLR
21:18 2.2 °F 0.8 °F 1022.9 in Calm     90 % 0.0 in 0.0 W/m2 CLR
21:23 2.2 °F 0.8 °F 1022.9 in SW 4.8 mph 4.8 mph 90 % 0.0 in 0.0 W/m2 CLR
21:28 1.7 °F 0.2 °F 1022.9 in WSW 5.6 mph 5.6 mph 90 % 0.0 in 0.0 W/m2 CLR
21:34 1.7 °F 0.2 °F 1022.9 in WSW 5.6 mph 5.6 mph 90 % 0.0 in 0.0 W/m2 CLR
21:39 1.7 °F 0.2 °F 1022.9 in Calm     90 % 0.0 in 0.0 W/m2 CLR
21:44 1.7 °F 0.2 °F 1022.9 in Calm     90 % 0.0 in 0.0 W/m2 CLR
21:49 1.1 °F -0.3 °F 1022.9 in Calm     90 % 0.0 in 0.0 W/m2 CLR
21:54 1.1 °F -0.3 °F 1022.6 in Calm     90 % 0.0 in 0.0 W/m2 CLR
21:59 1.1 °F -0.3 °F 1022.6 in Calm     90 % 0.0 in 0.0 W/m2 CLR
22:04 0.6 °F -0.7 °F 1022.6 in WSW 5.6 mph 5.6 mph 91 % 0.0 in 0.0 W/m2 CLR
22:09 0.6 °F -0.7 °F 1022.6 in Calm     91 % 0.0 in 0.0 W/m2 CLR
22:14 0.6 °F -0.7 °F 1022.6 in Calm     91 % 0.0 in 0.0 W/m2 CLR
22:19 0.6 °F -0.7 °F 1022.2 in Calm     91 % 0.0 in 0.0 W/m2 CLR
22:24 0.6 °F -0.7 °F 1022.6 in Calm     91 % 0.0 in 0.0 W/m2 CLR
22:29 0.6 °F -0.7 °F 1022.2 in Calm     91 % 0.0 in 0.0 W/m2 CLR
22:34 0.6 °F -0.7 °F 1022.2 in Calm     91 % 0.0 in 0.0 W/m2 CLR
22:39 0.6 °F -0.7 °F 1021.9 in Calm     91 % 0.0 in 0.0 W/m2 CLR
22:44 0.6 °F -0.7 °F 1021.9 in Calm     91 % 0.0 in 0.0 W/m2 CLR
22:49 0.6 °F -0.7 °F 1021.9 in Calm     91 % 0.0 in 0.0 W/m2 CLR
22:54 0.6 °F -0.7 °F 1021.6 in Calm     91 % 0.0 in 0.0 W/m2 CLR
22:59 0.6 °F -0.7 °F 1021.6 in Calm     91 % 0.0 in 0.0 W/m2 CLR
23:04 0.0 °F -1.3 °F 1021.6 in Calm     91 % 0.0 in 0.0 W/m2 CLR
23:09 0.0 °F -1.3 °F 1021.6 in Calm     91 % 0.0 in 0.0 W/m2 CLR
23:14 0.0 °F -1.3 °F 1021.6 in Calm     91 % 0.0 in 0.0 W/m2 CLR
23:19 0.0 °F -1.3 °F 1021.2 in Calm     91 % 0.0 in 0.0 W/m2 CLR
23:24 -0.6 °F -1.8 °F 1021.2 in Calm     91 % 0.0 in 0.0 W/m2 CLR
23:29 0.0 °F -1.3 °F 1021.2 in Calm     91 % 0.0 in 0.0 W/m2 CLR
23:34 0.0 °F -1.2 °F 1021.2 in WNW 3.2 mph 3.2 mph 92 % 0.0 in 0.0 W/m2 CLR
23:39 0.0 °F -1.2 °F 1021.2 in Calm     92 % 0.0 in 0.0 W/m2 CLR
23:44 0.6 °F -0.6 °F 1021.2 in Calm     92 % 0.0 in 0.0 W/m2 CLR
23:49 0.0 °F -1.2 °F 1021.2 in Calm     92 % 0.0 in 0.0 W/m2 CLR
23:54 0.0 °F -1.3 °F 1020.9 in Calm     91 % 0.0 in 0.0 W/m2 CLR
23:59 0.0 °F -1.2 °F 1020.9 in Calm     92 % 0.0 in 0.0 W/m2 CLR
Lo Temps de Massalio
Compliments of Weather Underground - 1.25 mb